sensor_id;sensor_type;location;lat;lon;timestamp;temperature;humidity
29539;DHT22;16482;51.046;4.498;2023-11-18T00:04:04;23.60;34.80
29539;DHT22;16482;51.046;4.498;2023-11-18T00:06:47;23.60;34.90
29539;DHT22;16482;51.046;4.498;2023-11-18T00:12:42;23.60;34.90
29539;DHT22;16482;51.046;4.498;2023-11-18T00:15:30;23.60;34.90
29539;DHT22;16482;51.046;4.498;2023-11-18T00:18:28;23.60;34.90
29539;DHT22;16482;51.046;4.498;2023-11-18T00:21:24;23.50;34.90
29539;DHT22;16482;51.046;4.498;2023-11-18T00:24:00;23.60;35.00
29539;DHT22;16482;51.046;4.498;2023-11-18T00:26:39;23.50;35.10
29539;DHT22;16482;51.046;4.498;2023-11-18T00:29:25;23.50;35.20
29539;DHT22;16482;51.046;4.498;2023-11-18T00:32:27;23.50;35.10
29539;DHT22;16482;51.046;4.498;2023-11-18T00:35:27;23.50;35.10
29539;DHT22;16482;51.046;4.498;2023-11-18T00:38:23;23.40;35.10
29539;DHT22;16482;51.046;4.498;2023-11-18T00:41:05;23.40;35.10
29539;DHT22;16482;51.046;4.498;2023-11-18T00:44:04;23.40;35.10
29539;DHT22;16482;51.046;4.498;2023-11-18T00:46:42;23.50;35.10
29539;DHT22;16482;51.046;4.498;2023-11-18T00:49:41;23.40;35.20
29539;DHT22;16482;51.046;4.498;2023-11-18T00:52:27;23.50;35.20
29539;DHT22;16482;51.046;4.498;2023-11-18T00:55:29;23.50;35.20
29539;DHT22;16482;51.046;4.498;2023-11-18T00:58:24;23.50;35.20
29539;DHT22;16482;51.046;4.498;2023-11-18T01:01:03;23.40;35.20
29539;DHT22;16482;51.046;4.498;2023-11-18T01:03:40;23.40;35.20
29539;DHT22;16482;51.046;4.498;2023-11-18T01:06:25;23.50;35.30
29539;DHT22;16482;51.046;4.498;2023-11-18T01:09:02;23.50;35.30
29539;DHT22;16482;51.046;4.498;2023-11-18T01:11:45;23.40;35.30
29539;DHT22;16482;51.046;4.498;2023-11-18T01:14:41;23.40;35.10
29539;DHT22;16482;51.046;4.498;2023-11-18T01:17:21;23.50;35.20
29539;DHT22;16482;51.046;4.498;2023-11-18T01:20:06;23.40;35.20
29539;DHT22;16482;51.046;4.498;2023-11-18T01:22:39;23.40;35.10
29539;DHT22;16482;51.046;4.498;2023-11-18T01:28:15;23.40;35.10
29539;DHT22;16482;51.046;4.498;2023-11-18T01:34:00;23.40;35.20
29539;DHT22;16482;51.046;4.498;2023-11-18T01:40:05;23.40;35.20
29539;DHT22;16482;51.046;4.498;2023-11-18T01:42:46;23.30;35.20
29539;DHT22;16482;51.046;4.498;2023-11-18T01:45:39;23.30;35.30
29539;DHT22;16482;51.046;4.498;2023-11-18T01:48:25;23.30;35.20
29539;DHT22;16482;51.046;4.498;2023-11-18T01:51:12;23.30;35.30
29539;DHT22;16482;51.046;4.498;2023-11-18T01:53:59;23.30;35.30
29539;DHT22;16482;51.046;4.498;2023-11-18T01:56:38;23.30;35.20
29539;DHT22;16482;51.046;4.498;2023-11-18T01:59:09;23.30;35.20
29539;DHT22;16482;51.046;4.498;2023-11-18T02:01:50;23.30;35.30
29539;DHT22;16482;51.046;4.498;2023-11-18T02:04:49;23.30;35.30
29539;DHT22;16482;51.046;4.498;2023-11-18T02:07:45;23.30;35.30
29539;DHT22;16482;51.046;4.498;2023-11-18T02:10:32;23.30;35.30
29539;DHT22;16482;51.046;4.498;2023-11-18T02:13:35;23.30;35.30
29539;DHT22;16482;51.046;4.498;2023-11-18T02:16:24;23.30;35.30
29539;DHT22;16482;51.046;4.498;2023-11-18T02:19:21;23.30;35.30
29539;DHT22;16482;51.046;4.498;2023-11-18T02:22:00;23.30;35.40
29539;DHT22;16482;51.046;4.498;2023-11-18T02:24:40;23.20;35.30
29539;DHT22;16482;51.046;4.498;2023-11-18T02:27:21;23.20;35.40
29539;DHT22;16482;51.046;4.498;2023-11-18T02:30:00;23.30;35.40
29539;DHT22;16482;51.046;4.498;2023-11-18T02:39:01;23.20;35.30
29539;DHT22;16482;51.046;4.498;2023-11-18T02:41:52;23.20;35.30
29539;DHT22;16482;51.046;4.498;2023-11-18T02:44:40;23.20;35.30
29539;DHT22;16482;51.046;4.498;2023-11-18T02:47:26;23.20;35.30
29539;DHT22;16482;51.046;4.498;2023-11-18T02:50:15;23.20;35.30
29539;DHT22;16482;51.046;4.498;2023-11-18T02:53:04;23.20;35.40
29539;DHT22;16482;51.046;4.498;2023-11-18T02:55:52;23.20;35.30
29539;DHT22;16482;51.046;4.498;2023-11-18T02:58:31;23.20;35.30
29539;DHT22;16482;51.046;4.498;2023-11-18T03:01:32;23.20;36.00
29539;DHT22;16482;51.046;4.498;2023-11-18T03:07:41;23.20;35.40
29539;DHT22;16482;51.046;4.498;2023-11-18T03:10:27;23.20;35.40
29539;DHT22;16482;51.046;4.498;2023-11-18T03:13:05;23.20;35.40
29539;DHT22;16482;51.046;4.498;2023-11-18T03:19:16;23.10;35.40
29539;DHT22;16482;51.046;4.498;2023-11-18T03:21:52;23.10;35.50
29539;DHT22;16482;51.046;4.498;2023-11-18T03:24:29;23.10;35.50
29539;DHT22;16482;51.046;4.498;2023-11-18T03:27:28;23.20;35.50
29539;DHT22;16482;51.046;4.498;2023-11-18T03:30:07;23.10;35.30
29539;DHT22;16482;51.046;4.498;2023-11-18T03:32:49;23.10;35.30
29539;DHT22;16482;51.046;4.498;2023-11-18T03:35:33;23.10;35.30
29539;DHT22;16482;51.046;4.498;2023-11-18T03:38:12;23.10;35.30
29539;DHT22;16482;51.046;4.498;2023-11-18T03:40:53;23.10;35.50
29539;DHT22;16482;51.046;4.498;2023-11-18T03:47:04;23.20;35.30
29539;DHT22;16482;51.046;4.498;2023-11-18T03:49:59;23.20;35.40
29539;DHT22;16482;51.046;4.498;2023-11-18T03:52:36;23.10;35.30
29539;DHT22;16482;51.046;4.498;2023-11-18T03:55:16;23.10;35.40
29539;DHT22;16482;51.046;4.498;2023-11-18T03:58:01;23.10;35.50
29539;DHT22;16482;51.046;4.498;2023-11-18T04:00:47;23.10;35.40
29539;DHT22;16482;51.046;4.498;2023-11-18T04:03:25;23.10;35.40
29539;DHT22;16482;51.046;4.498;2023-11-18T04:06:07;23.10;35.50
29539;DHT22;16482;51.046;4.498;2023-11-18T04:08:49;23.10;35.50
29539;DHT22;16482;51.046;4.498;2023-11-18T04:11:25;23.10;35.50
29539;DHT22;16482;51.046;4.498;2023-11-18T04:14:11;23.10;35.60
29539;DHT22;16482;51.046;4.498;2023-11-18T04:16:48;23.10;35.60
29539;DHT22;16482;51.046;4.498;2023-11-18T04:19:29;23.00;35.40
29539;DHT22;16482;51.046;4.498;2023-11-18T04:22:16;23.00;35.40
29539;DHT22;16482;51.046;4.498;2023-11-18T04:25:07;23.10;35.50
29539;DHT22;16482;51.046;4.498;2023-11-18T04:28:00;23.10;35.50
29539;DHT22;16482;51.046;4.498;2023-11-18T04:30:36;23.10;35.60
29539;DHT22;16482;51.046;4.498;2023-11-18T04:33:20;23.00;35.60
29539;DHT22;16482;51.046;4.498;2023-11-18T04:36:06;23.10;35.50
29539;DHT22;16482;51.046;4.498;2023-11-18T04:38:55;23.00;35.50
29539;DHT22;16482;51.046;4.498;2023-11-18T04:41:31;23.00;35.60
29539;DHT22;16482;51.046;4.498;2023-11-18T04:44:10;23.10;35.70
29539;DHT22;16482;51.046;4.498;2023-11-18T04:46:57;23.00;35.60
29539;DHT22;16482;51.046;4.498;2023-11-18T04:49:39;23.00;35.60
29539;DHT22;16482;51.046;4.498;2023-11-18T04:52:22;23.00;35.60
29539;DHT22;16482;51.046;4.498;2023-11-18T04:55:05;23.00;35.60
29539;DHT22;16482;51.046;4.498;2023-11-18T04:57:44;23.00;35.60
29539;DHT22;16482;51.046;4.498;2023-11-18T05:00:38;23.00;35.60
29539;DHT22;16482;51.046;4.498;2023-11-18T05:03:26;23.00;35.60
29539;DHT22;16482;51.046;4.498;2023-11-18T05:09:25;23.00;35.70
29539;DHT22;16482;51.046;4.498;2023-11-18T05:12:08;23.00;35.70
29539;DHT22;16482;51.046;4.498;2023-11-18T05:20:55;23.00;35.80
29539;DHT22;16482;51.046;4.498;2023-11-18T05:23:51;23.00;35.90
29539;DHT22;16482;51.046;4.498;2023-11-18T05:26:35;23.00;35.90
29539;DHT22;16482;51.046;4.498;2023-11-18T05:29:20;22.90;35.80
29539;DHT22;16482;51.046;4.498;2023-11-18T05:32:10;23.00;35.90
29539;DHT22;16482;51.046;4.498;2023-11-18T05:34:46;23.00;35.80
29539;DHT22;16482;51.046;4.498;2023-11-18T05:37:44;23.00;35.90
29539;DHT22;16482;51.046;4.498;2023-11-18T05:40:39;23.00;35.90
29539;DHT22;16482;51.046;4.498;2023-11-18T05:43:15;22.90;35.80
29539;DHT22;16482;51.046;4.498;2023-11-18T05:46:03;22.90;36.10
29539;DHT22;16482;51.046;4.498;2023-11-18T05:49:02;22.90;35.90
29539;DHT22;16482;51.046;4.498;2023-11-18T05:51:55;22.90;36.00
29539;DHT22;16482;51.046;4.498;2023-11-18T05:54:51;22.90;36.00
29539;DHT22;16482;51.046;4.498;2023-11-18T05:57:33;22.90;36.00
29539;DHT22;16482;51.046;4.498;2023-11-18T06:00:12;22.90;36.10
29539;DHT22;16482;51.046;4.498;2023-11-18T06:09:10;22.90;35.90
29539;DHT22;16482;51.046;4.498;2023-11-18T06:12:00;22.90;36.30
29539;DHT22;16482;51.046;4.498;2023-11-18T06:14:40;23.00;36.30
29539;DHT22;16482;51.046;4.498;2023-11-18T06:17:23;23.00;36.50
29539;DHT22;16482;51.046;4.498;2023-11-18T06:20:17;23.00;36.50
29539;DHT22;16482;51.046;4.498;2023-11-18T06:23:01;23.10;37.20
29539;DHT22;16482;51.046;4.498;2023-11-18T06:25:39;23.00;36.50
29539;DHT22;16482;51.046;4.498;2023-11-18T06:28:33;23.10;36.50
29539;DHT22;16482;51.046;4.498;2023-11-18T06:34:22;23.30;36.50
29539;DHT22;16482;51.046;4.498;2023-11-18T06:36:59;23.30;36.50
29539;DHT22;16482;51.046;4.498;2023-11-18T06:39:41;23.30;36.50
29539;DHT22;16482;51.046;4.498;2023-11-18T06:42:27;23.40;36.30
29539;DHT22;16482;51.046;4.498;2023-11-18T06:45:15;23.50;36.40
29539;DHT22;16482;51.046;4.498;2023-11-18T06:47:51;23.50;36.40
29539;DHT22;16482;51.046;4.498;2023-11-18T06:53:56;23.60;36.10
29539;DHT22;16482;51.046;4.498;2023-11-18T06:56:45;23.70;36.10
29539;DHT22;16482;51.046;4.498;2023-11-18T06:59:27;23.60;36.10
29539;DHT22;16482;51.046;4.498;2023-11-18T07:02:10;23.70;36.10
29539;DHT22;16482;51.046;4.498;2023-11-18T07:08:06;23.80;36.00
29539;DHT22;16482;51.046;4.498;2023-11-18T07:11:03;23.70;36.10
29539;DHT22;16482;51.046;4.498;2023-11-18T07:14:06;23.80;36.00
29539;DHT22;16482;51.046;4.498;2023-11-18T07:16:47;23.80;36.10
29539;DHT22;16482;51.046;4.498;2023-11-18T07:19:31;23.80;36.10
29539;DHT22;16482;51.046;4.498;2023-11-18T07:22:18;23.80;36.10
29539;DHT22;16482;51.046;4.498;2023-11-18T07:31:00;23.80;36.00
29539;DHT22;16482;51.046;4.498;2023-11-18T07:33:39;23.80;36.20
29539;DHT22;16482;51.046;4.498;2023-11-18T07:39:21;23.90;36.00
29539;DHT22;16482;51.046;4.498;2023-11-18T07:45:45;23.90;36.00
29539;DHT22;16482;51.046;4.498;2023-11-18T07:48:23;23.90;36.10
29539;DHT22;16482;51.046;4.498;2023-11-18T07:51:04;23.90;36.20
29539;DHT22;16482;51.046;4.498;2023-11-18T07:53:46;23.90;36.10
29539;DHT22;16482;51.046;4.498;2023-11-18T07:56:37;24.00;36.10
29539;DHT22;16482;51.046;4.498;2023-11-18T07:59:21;24.00;36.00
29539;DHT22;16482;51.046;4.498;2023-11-18T08:01:58;23.90;36.10
29539;DHT22;16482;51.046;4.498;2023-11-18T08:04:36;24.00;36.20
29539;DHT22;16482;51.046;4.498;2023-11-18T08:07:13;24.00;36.10
29539;DHT22;16482;51.046;4.498;2023-11-18T08:10:07;24.00;36.20
29539;DHT22;16482;51.046;4.498;2023-11-18T08:12:46;24.00;36.20
29539;DHT22;16482;51.046;4.498;2023-11-18T08:15:20;24.00;36.20
29539;DHT22;16482;51.046;4.498;2023-11-18T08:18:19;24.00;36.20
29539;DHT22;16482;51.046;4.498;2023-11-18T08:20:59;24.00;36.10
29539;DHT22;16482;51.046;4.498;2023-11-18T08:26:48;24.00;36.20
29539;DHT22;16482;51.046;4.498;2023-11-18T08:32:51;24.00;36.30
29539;DHT22;16482;51.046;4.498;2023-11-18T08:35:38;23.90;36.40
29539;DHT22;16482;51.046;4.498;2023-11-18T08:41:38;24.00;36.40
29539;DHT22;16482;51.046;4.498;2023-11-18T08:44:14;24.00;36.40
29539;DHT22;16482;51.046;4.498;2023-11-18T08:46:53;24.00;36.50
29539;DHT22;16482;51.046;4.498;2023-11-18T08:49:31;24.00;36.50
29539;DHT22;16482;51.046;4.498;2023-11-18T08:52:10;24.00;36.50
29539;DHT22;16482;51.046;4.498;2023-11-18T08:54:49;24.00;36.60
29539;DHT22;16482;51.046;4.498;2023-11-18T08:57:35;24.00;36.50
29539;DHT22;16482;51.046;4.498;2023-11-18T09:00:20;24.10;36.60
29539;DHT22;16482;51.046;4.498;2023-11-18T09:03:39;24.00;36.50
29539;DHT22;16482;51.046;4.498;2023-11-18T09:06:26;24.10;36.60
29539;DHT22;16482;51.046;4.498;2023-11-18T09:09:06;24.10;36.70
29539;DHT22;16482;51.046;4.498;2023-11-18T09:11:48;24.10;36.60
29539;DHT22;16482;51.046;4.498;2023-11-18T09:14:43;24.10;36.70
29539;DHT22;16482;51.046;4.498;2023-11-18T09:17:24;24.00;36.70
29539;DHT22;16482;51.046;4.498;2023-11-18T09:23:00;24.00;36.60
29539;DHT22;16482;51.046;4.498;2023-11-18T09:29:01;24.10;36.70
29539;DHT22;16482;51.046;4.498;2023-11-18T09:31:37;24.00;36.80
29539;DHT22;16482;51.046;4.498;2023-11-18T09:34:17;24.10;36.80
29539;DHT22;16482;51.046;4.498;2023-11-18T09:36:53;24.00;36.80
29539;DHT22;16482;51.046;4.498;2023-11-18T09:39:46;24.10;36.80
29539;DHT22;16482;51.046;4.498;2023-11-18T09:42:30;24.00;36.80
29539;DHT22;16482;51.046;4.498;2023-11-18T09:45:08;24.00;36.80
29539;DHT22;16482;51.046;4.498;2023-11-18T09:47:57;24.10;37.00
29539;DHT22;16482;51.046;4.498;2023-11-18T09:50:38;24.00;36.90
29539;DHT22;16482;51.046;4.498;2023-11-18T09:53:17;24.10;37.00
29539;DHT22;16482;51.046;4.498;2023-11-18T09:56:07;24.00;36.90
29539;DHT22;16482;51.046;4.498;2023-11-18T09:59:01;24.10;37.00
29539;DHT22;16482;51.046;4.498;2023-11-18T10:01:50;24.00;36.90
29539;DHT22;16482;51.046;4.498;2023-11-18T10:04:31;24.00;37.00
29539;DHT22;16482;51.046;4.498;2023-11-18T10:07:29;24.00;37.00
29539;DHT22;16482;51.046;4.498;2023-11-18T10:10:13;24.00;37.00
29539;DHT22;16482;51.046;4.498;2023-11-18T10:13:00;24.00;37.10
29539;DHT22;16482;51.046;4.498;2023-11-18T10:15:39;24.00;37.00
29539;DHT22;16482;51.046;4.498;2023-11-18T10:18:16;24.00;37.10
29539;DHT22;16482;51.046;4.498;2023-11-18T10:21:03;24.10;37.20
29539;DHT22;16482;51.046;4.498;2023-11-18T10:24:02;24.10;37.20
29539;DHT22;16482;51.046;4.498;2023-11-18T10:26:54;24.10;37.20
29539;DHT22;16482;51.046;4.498;2023-11-18T10:29:45;24.00;37.10
29539;DHT22;16482;51.046;4.498;2023-11-18T10:32:11;24.10;37.20
29539;DHT22;16482;51.046;4.498;2023-11-18T10:35:02;24.00;37.30
29539;DHT22;16482;51.046;4.498;2023-11-18T10:37:42;24.10;37.30
29539;DHT22;16482;51.046;4.498;2023-11-18T10:40:39;24.00;37.30
29539;DHT22;16482;51.046;4.498;2023-11-18T10:43:20;24.10;37.20
29539;DHT22;16482;51.046;4.498;2023-11-18T10:46:30;24.10;37.40
29539;DHT22;16482;51.046;4.498;2023-11-18T10:48:58;24.10;37.30
29539;DHT22;16482;51.046;4.498;2023-11-18T10:51:38;24.00;37.40
29539;DHT22;16482;51.046;4.498;2023-11-18T10:54:16;24.10;37.40
29539;DHT22;16482;51.046;4.498;2023-11-18T10:56:55;24.10;37.50
29539;DHT22;16482;51.046;4.498;2023-11-18T11:02:37;24.10;37.50
29539;DHT22;16482;51.046;4.498;2023-11-18T11:05:30;24.00;37.40
29539;DHT22;16482;51.046;4.498;2023-11-18T11:08:08;24.00;37.60
29539;DHT22;16482;51.046;4.498;2023-11-18T11:10:46;24.00;37.60
29539;DHT22;16482;51.046;4.498;2023-11-18T11:13:30;24.10;37.60
29539;DHT22;16482;51.046;4.498;2023-11-18T11:16:36;24.00;37.50
29539;DHT22;16482;51.046;4.498;2023-11-18T11:19:38;24.10;37.50
29539;DHT22;16482;51.046;4.498;2023-11-18T11:22:43;24.00;37.50
29539;DHT22;16482;51.046;4.498;2023-11-18T11:25:43;24.10;37.50
29539;DHT22;16482;51.046;4.498;2023-11-18T11:28:21;24.10;37.70
29539;DHT22;16482;51.046;4.498;2023-11-18T11:31:17;24.00;37.60
29539;DHT22;16482;51.046;4.498;2023-11-18T11:34:02;24.10;37.70
29539;DHT22;16482;51.046;4.498;2023-11-18T11:36:46;24.10;37.70
29539;DHT22;16482;51.046;4.498;2023-11-18T11:39:22;24.10;37.70
29539;DHT22;16482;51.046;4.498;2023-11-18T11:41:55;24.00;37.80
29539;DHT22;16482;51.046;4.498;2023-11-18T11:44:53;24.10;37.80
29539;DHT22;16482;51.046;4.498;2023-11-18T11:47:34;24.10;37.70
29539;DHT22;16482;51.046;4.498;2023-11-18T11:50:19;24.10;37.80
29539;DHT22;16482;51.046;4.498;2023-11-18T11:53:12;24.10;37.80
29539;DHT22;16482;51.046;4.498;2023-11-18T11:55:54;24.10;37.80
29539;DHT22;16482;51.046;4.498;2023-11-18T12:01:45;24.10;37.90
29539;DHT22;16482;51.046;4.498;2023-11-18T12:04:26;24.10;37.90
29539;DHT22;16482;51.046;4.498;2023-11-18T12:07:29;24.10;37.90
29539;DHT22;16482;51.046;4.498;2023-11-18T12:10:10;24.10;37.90
29539;DHT22;16482;51.046;4.498;2023-11-18T12:13:25;24.00;37.80
29539;DHT22;16482;51.046;4.498;2023-11-18T12:15:59;24.10;37.90
29539;DHT22;16482;51.046;4.498;2023-11-18T12:18:43;24.10;37.90
29539;DHT22;16482;51.046;4.498;2023-11-18T12:21:58;24.10;38.00
29539;DHT22;16482;51.046;4.498;2023-11-18T12:24:45;24.10;38.00
29539;DHT22;16482;51.046;4.498;2023-11-18T12:33:07;24.00;38.20
29539;DHT22;16482;51.046;4.498;2023-11-18T12:41:44;24.10;38.30
29539;DHT22;16482;51.046;4.498;2023-11-18T12:44:30;24.00;38.20
29539;DHT22;16482;51.046;4.498;2023-11-18T12:47:30;24.10;38.20
29539;DHT22;16482;51.046;4.498;2023-11-18T12:50:09;24.10;38.20
29539;DHT22;16482;51.046;4.498;2023-11-18T12:53:00;24.10;38.30
29539;DHT22;16482;51.046;4.498;2023-11-18T12:55:46;24.10;38.30
29539;DHT22;16482;51.046;4.498;2023-11-18T12:58:24;24.10;38.30
29539;DHT22;16482;51.046;4.498;2023-11-18T13:01:00;24.10;38.40
29539;DHT22;16482;51.046;4.498;2023-11-18T13:03:40;24.10;38.40
29539;DHT22;16482;51.046;4.498;2023-11-18T13:06:37;24.10;38.40
29539;DHT22;16482;51.046;4.498;2023-11-18T13:09:17;24.10;38.90
29539;DHT22;16482;51.046;4.498;2023-11-18T13:15:02;24.10;38.40
29539;DHT22;16482;51.046;4.498;2023-11-18T13:17:38;24.10;38.50
29539;DHT22;16482;51.046;4.498;2023-11-18T13:20:16;24.10;38.50
29539;DHT22;16482;51.046;4.498;2023-11-18T13:23:09;24.10;38.40
29539;DHT22;16482;51.046;4.498;2023-11-18T13:25:48;24.10;38.50
29539;DHT22;16482;51.046;4.498;2023-11-18T13:28:42;24.10;38.50
29539;DHT22;16482;51.046;4.498;2023-11-18T13:31:24;24.10;38.50
29539;DHT22;16482;51.046;4.498;2023-11-18T13:34:01;24.10;38.50
29539;DHT22;16482;51.046;4.498;2023-11-18T13:36:45;24.10;38.60
29539;DHT22;16482;51.046;4.498;2023-11-18T13:39:29;24.10;38.50
29539;DHT22;16482;51.046;4.498;2023-11-18T13:42:26;24.10;38.50
29539;DHT22;16482;51.046;4.498;2023-11-18T13:45:12;24.20;38.50
29539;DHT22;16482;51.046;4.498;2023-11-18T13:47:52;24.10;38.50
29539;DHT22;16482;51.046;4.498;2023-11-18T13:50:41;24.20;38.60
29539;DHT22;16482;51.046;4.498;2023-11-18T13:53:26;24.10;38.70
29539;DHT22;16482;51.046;4.498;2023-11-18T13:59:22;24.10;38.60
29539;DHT22;16482;51.046;4.498;2023-11-18T14:01:59;24.10;38.70
29539;DHT22;16482;51.046;4.498;2023-11-18T14:04:47;24.10;38.70
29539;DHT22;16482;51.046;4.498;2023-11-18T14:07:26;24.10;38.80
29539;DHT22;16482;51.046;4.498;2023-11-18T14:10:02;24.10;38.70
29539;DHT22;16482;51.046;4.498;2023-11-18T14:13:02;24.10;38.80
29539;DHT22;16482;51.046;4.498;2023-11-18T14:15:40;24.10;38.80
29539;DHT22;16482;51.046;4.498;2023-11-18T14:18:32;24.10;38.80
29539;DHT22;16482;51.046;4.498;2023-11-18T14:21:09;24.10;38.80
29539;DHT22;16482;51.046;4.498;2023-11-18T14:23:53;24.10;38.80
29539;DHT22;16482;51.046;4.498;2023-11-18T14:26:38;24.10;38.90
29539;DHT22;16482;51.046;4.498;2023-11-18T14:29:33;24.10;38.90
29539;DHT22;16482;51.046;4.498;2023-11-18T14:32:26;24.10;38.90
29539;DHT22;16482;51.046;4.498;2023-11-18T14:35:06;24.10;38.90
29539;DHT22;16482;51.046;4.498;2023-11-18T14:37:55;24.10;39.00
29539;DHT22;16482;51.046;4.498;2023-11-18T14:40:48;24.10;39.00
29539;DHT22;16482;51.046;4.498;2023-11-18T14:46:49;24.10;39.30
29539;DHT22;16482;51.046;4.498;2023-11-18T14:49:33;24.10;39.70
29539;DHT22;16482;51.046;4.498;2023-11-18T14:52:30;24.10;39.10
29539;DHT22;16482;51.046;4.498;2023-11-18T14:55:06;24.10;39.20
29539;DHT22;16482;51.046;4.498;2023-11-18T14:57:44;24.10;39.20
29539;DHT22;16482;51.046;4.498;2023-11-18T15:03:34;24.10;39.30
29539;DHT22;16482;51.046;4.498;2023-11-18T15:06:33;24.10;39.30
29539;DHT22;16482;51.046;4.498;2023-11-18T15:09:29;24.10;39.30
29539;DHT22;16482;51.046;4.498;2023-11-18T15:15:20;24.10;39.30
29539;DHT22;16482;51.046;4.498;2023-11-18T15:18:04;24.10;39.40
29539;DHT22;16482;51.046;4.498;2023-11-18T15:21:04;24.10;39.50
29539;DHT22;16482;51.046;4.498;2023-11-18T15:23:58;24.10;39.40
29539;DHT22;16482;51.046;4.498;2023-11-18T15:26:40;24.10;39.50
29539;DHT22;16482;51.046;4.498;2023-11-18T15:29:28;24.10;39.60
29539;DHT22;16482;51.046;4.498;2023-11-18T15:32:17;24.10;39.70
29539;DHT22;16482;51.046;4.498;2023-11-18T15:34:53;24.10;39.60
29539;DHT22;16482;51.046;4.498;2023-11-18T15:37:44;24.10;39.60
29539;DHT22;16482;51.046;4.498;2023-11-18T15:40:25;24.10;39.60
29539;DHT22;16482;51.046;4.498;2023-11-18T15:46:01;24.10;39.60
29539;DHT22;16482;51.046;4.498;2023-11-18T15:48:37;24.10;39.70
29539;DHT22;16482;51.046;4.498;2023-11-18T15:51:16;24.10;39.70
29539;DHT22;16482;51.046;4.498;2023-11-18T15:54:07;24.10;39.70
29539;DHT22;16482;51.046;4.498;2023-11-18T15:56:50;24.10;39.70
29539;DHT22;16482;51.046;4.498;2023-11-18T15:59:23;24.10;39.80
29539;DHT22;16482;51.046;4.498;2023-11-18T16:02:19;24.10;39.90
29539;DHT22;16482;51.046;4.498;2023-11-18T16:05:00;24.10;39.90
29539;DHT22;16482;51.046;4.498;2023-11-18T16:07:43;24.10;39.80
29539;DHT22;16482;51.046;4.498;2023-11-18T16:10:33;24.10;39.80
29539;DHT22;16482;51.046;4.498;2023-11-18T16:13:28;24.10;40.00
29539;DHT22;16482;51.046;4.498;2023-11-18T16:16:09;24.10;39.90
29539;DHT22;16482;51.046;4.498;2023-11-18T16:18:56;24.10;40.00
29539;DHT22;16482;51.046;4.498;2023-11-18T16:21:45;24.10;40.00
29539;DHT22;16482;51.046;4.498;2023-11-18T16:24:44;24.10;40.00
29539;DHT22;16482;51.046;4.498;2023-11-18T16:27:47;24.10;40.00
29539;DHT22;16482;51.046;4.498;2023-11-18T16:30:31;24.20;40.10
29539;DHT22;16482;51.046;4.498;2023-11-18T16:36:34;24.10;40.20
29539;DHT22;16482;51.046;4.498;2023-11-18T16:39:35;24.20;40.20
29539;DHT22;16482;51.046;4.498;2023-11-18T16:42:16;24.10;40.30
29539;DHT22;16482;51.046;4.498;2023-11-18T16:44:52;24.10;40.30
29539;DHT22;16482;51.046;4.498;2023-11-18T16:47:31;24.10;40.30
29539;DHT22;16482;51.046;4.498;2023-11-18T16:50:30;24.10;40.30
29539;DHT22;16482;51.046;4.498;2023-11-18T16:56:26;24.10;40.40
29539;DHT22;16482;51.046;4.498;2023-11-18T16:59:10;24.20;40.40
29539;DHT22;16482;51.046;4.498;2023-11-18T17:01:53;24.20;40.40
29539;DHT22;16482;51.046;4.498;2023-11-18T17:04:48;24.10;40.50
29539;DHT22;16482;51.046;4.498;2023-11-18T17:07:45;24.20;41.00
29539;DHT22;16482;51.046;4.498;2023-11-18T17:10:41;24.20;40.50
29539;DHT22;16482;51.046;4.498;2023-11-18T17:13:35;24.20;40.50
29539;DHT22;16482;51.046;4.498;2023-11-18T17:16:31;24.10;40.60
29539;DHT22;16482;51.046;4.498;2023-11-18T17:19:12;24.20;40.60
29539;DHT22;16482;51.046;4.498;2023-11-18T17:24:50;24.10;40.70
29539;DHT22;16482;51.046;4.498;2023-11-18T17:27:46;24.10;40.80
29539;DHT22;16482;51.046;4.498;2023-11-18T17:30:23;24.10;40.70
29539;DHT22;16482;51.046;4.498;2023-11-18T17:36:35;24.10;40.80
29539;DHT22;16482;51.046;4.498;2023-11-18T17:39:12;24.10;40.80
29539;DHT22;16482;51.046;4.498;2023-11-18T17:42:10;24.20;41.00
29539;DHT22;16482;51.046;4.498;2023-11-18T17:44:56;24.20;41.00
29539;DHT22;16482;51.046;4.498;2023-11-18T17:47:37;24.10;41.60
29539;DHT22;16482;51.046;4.498;2023-11-18T17:50:14;24.20;41.00
29539;DHT22;16482;51.046;4.498;2023-11-18T17:52:53;24.10;41.10
29539;DHT22;16482;51.046;4.498;2023-11-18T17:55:31;24.10;41.10
29539;DHT22;16482;51.046;4.498;2023-11-18T17:58:17;24.20;41.10
29539;DHT22;16482;51.046;4.498;2023-11-18T18:01:01;24.10;41.00
29539;DHT22;16482;51.046;4.498;2023-11-18T18:03:37;24.20;41.20
29539;DHT22;16482;51.046;4.498;2023-11-18T18:06:33;24.10;41.20
29539;DHT22;16482;51.046;4.498;2023-11-18T18:09:12;24.20;41.20
29539;DHT22;16482;51.046;4.498;2023-11-18T18:12:13;24.20;41.30
29539;DHT22;16482;51.046;4.498;2023-11-18T18:15:15;24.10;41.20
29539;DHT22;16482;51.046;4.498;2023-11-18T18:17:54;24.20;41.40
29539;DHT22;16482;51.046;4.498;2023-11-18T18:20:36;24.10;41.40
29539;DHT22;16482;51.046;4.498;2023-11-18T18:23:14;24.20;41.40
29539;DHT22;16482;51.046;4.498;2023-11-18T18:26:04;24.20;41.50
29539;DHT22;16482;51.046;4.498;2023-11-18T18:29:06;24.20;41.50
29539;DHT22;16482;51.046;4.498;2023-11-18T18:31:44;24.20;41.50
29539;DHT22;16482;51.046;4.498;2023-11-18T18:34:27;24.10;41.60
29539;DHT22;16482;51.046;4.498;2023-11-18T18:37:14;24.20;41.60
29539;DHT22;16482;51.046;4.498;2023-11-18T18:39:53;24.20;41.60
29539;DHT22;16482;51.046;4.498;2023-11-18T18:42:32;24.20;41.60
29539;DHT22;16482;51.046;4.498;2023-11-18T18:45:14;24.10;41.70
29539;DHT22;16482;51.046;4.498;2023-11-18T18:47:50;24.10;41.70
29539;DHT22;16482;51.046;4.498;2023-11-18T18:50:44;24.20;41.90
29539;DHT22;16482;51.046;4.498;2023-11-18T18:53:37;24.20;41.80
29539;DHT22;16482;51.046;4.498;2023-11-18T18:56:16;24.20;42.50
29539;DHT22;16482;51.046;4.498;2023-11-18T18:59:12;24.20;41.90
29539;DHT22;16482;51.046;4.498;2023-11-18T19:01:53;24.20;42.00
29539;DHT22;16482;51.046;4.498;2023-11-18T19:04:34;24.20;42.00
29539;DHT22;16482;51.046;4.498;2023-11-18T19:07:03;24.10;42.00
29539;DHT22;16482;51.046;4.498;2023-11-18T19:09:46;24.20;42.10
29539;DHT22;16482;51.046;4.498;2023-11-18T19:12:22;24.20;42.10
29539;DHT22;16482;51.046;4.498;2023-11-18T19:15:01;24.20;42.20
29539;DHT22;16482;51.046;4.498;2023-11-18T19:17:39;24.20;42.20
29539;DHT22;16482;51.046;4.498;2023-11-18T19:23:34;24.20;42.30
29539;DHT22;16482;51.046;4.498;2023-11-18T19:26:11;24.10;42.30
29539;DHT22;16482;51.046;4.498;2023-11-18T19:28:57;24.20;42.40
29539;DHT22;16482;51.046;4.498;2023-11-18T19:32:12;24.10;42.30
29539;DHT22;16482;51.046;4.498;2023-11-18T19:34:53;24.20;42.40
29539;DHT22;16482;51.046;4.498;2023-11-18T19:37:29;24.10;42.50
29539;DHT22;16482;51.046;4.498;2023-11-18T19:40:16;24.20;42.60
29539;DHT22;16482;51.046;4.498;2023-11-18T19:42:52;24.20;42.50